createdAt,value
2023-06-12T00:00:03.576Z,17.20
2023-06-12T00:01:03.657Z,17.10
2023-06-12T00:02:03.426Z,17.10
2023-06-12T00:03:03.375Z,17.10
2023-06-12T00:04:03.306Z,17.10
2023-06-12T00:05:02.950Z,17.10
2023-06-12T00:06:02.923Z,17.00
2023-06-12T00:07:02.752Z,17.00
2023-06-12T00:08:03.476Z,17.00
2023-06-12T00:09:03.021Z,17.00
2023-06-12T00:10:03.041Z,16.90
2023-06-12T00:11:02.867Z,16.90
2023-06-12T00:12:03.650Z,16.90
2023-06-12T00:13:03.121Z,16.90
2023-06-12T00:14:02.706Z,16.90
2023-06-12T00:15:03.265Z,16.90
2023-06-12T00:16:03.073Z,16.80
2023-06-12T00:17:02.847Z,16.80
2023-06-12T00:18:02.804Z,16.80
2023-06-12T00:19:02.679Z,16.80
2023-06-12T00:20:03.328Z,16.80
2023-06-12T00:21:03.384Z,16.80
2023-06-12T00:22:03.360Z,16.70
2023-06-12T00:23:03.462Z,16.70
2023-06-12T00:24:03.562Z,16.70
2023-06-12T00:25:03.194Z,16.70
2023-06-12T00:26:03.096Z,16.70
2023-06-12T00:27:02.754Z,16.70
2023-06-12T00:28:02.875Z,16.70
2023-06-12T00:29:03.539Z,16.60
2023-06-12T00:30:03.408Z,16.60
2023-06-12T00:31:03.166Z,16.60
2023-06-12T00:32:02.746Z,16.60
2023-06-12T00:33:03.785Z,16.60
2023-06-12T00:34:02.799Z,16.60
2023-06-12T00:35:02.947Z,16.60
2023-06-12T00:36:02.634Z,16.60
2023-06-12T00:37:02.784Z,16.60
2023-06-12T00:38:03.296Z,16.50
2023-06-12T00:39:03.035Z,16.50
2023-06-12T00:40:02.777Z,16.50
2023-06-12T00:41:03.712Z,16.50
2023-06-12T00:42:03.271Z,16.50
2023-06-12T00:43:03.029Z,16.50
2023-06-12T00:44:03.151Z,16.50
2023-06-12T00:45:02.772Z,16.40
2023-06-12T00:46:03.365Z,16.40
2023-06-12T00:47:03.140Z,16.40
2023-06-12T00:48:02.786Z,16.40
2023-06-12T00:49:02.885Z,16.30
2023-06-12T00:50:03.545Z,16.30
2023-06-12T00:51:03.276Z,16.30
2023-06-12T00:52:02.851Z,16.30
2023-06-12T00:53:03.509Z,16.30
2023-06-12T00:54:03.593Z,16.30
2023-06-12T00:55:03.159Z,16.30
2023-06-12T00:56:02.924Z,16.30
2023-06-12T00:57:02.761Z,16.20
2023-06-12T00:58:03.345Z,16.20
2023-06-12T00:59:02.959Z,16.20
2023-06-12T01:00:02.661Z,16.20
2023-06-12T01:01:03.597Z,16.20
2023-06-12T01:02:03.325Z,16.20
2023-06-12T01:03:03.454Z,16.20
2023-06-12T01:04:03.165Z,16.20
2023-06-12T01:05:02.888Z,16.10
2023-06-12T01:06:03.036Z,16.10
2023-06-12T01:07:03.221Z,16.10
2023-06-12T01:08:02.727Z,16.10
2023-06-12T01:09:03.465Z,16.10
2023-06-12T01:10:03.446Z,16.10
2023-06-12T01:11:03.106Z,16.10
2023-06-12T01:12:03.020Z,16.10
2023-06-12T01:13:03.128Z,16.10
2023-06-12T01:14:02.626Z,16.10
2023-06-12T01:15:03.319Z,16.10
2023-06-12T01:16:03.227Z,16.10
2023-06-12T01:17:03.091Z,16.10
2023-06-12T01:18:03.101Z,16.00
2023-06-12T01:19:02.988Z,16.00
2023-06-12T01:20:02.670Z,16.00
2023-06-12T01:21:03.330Z,16.00
2023-06-12T01:22:02.934Z,16.00
2023-06-12T01:23:02.877Z,16.00
2023-06-12T01:24:03.263Z,16.00
2023-06-12T01:25:02.981Z,16.00
2023-06-12T01:26:03.135Z,16.00
2023-06-12T01:27:02.842Z,16.00
2023-06-12T01:28:02.879Z,16.00
2023-06-12T01:29:03.095Z,16.00
2023-06-12T01:30:02.762Z,16.00
2023-06-12T01:31:03.665Z,16.00
2023-06-12T01:32:03.313Z,16.00
2023-06-12T01:33:03.182Z,16.00
2023-06-12T01:34:02.914Z,16.00
2023-06-12T01:35:03.421Z,15.90
2023-06-12T01:36:03.497Z,15.90
2023-06-12T01:37:03.089Z,15.90
2023-06-12T01:38:02.708Z,15.90
2023-06-12T01:39:03.407Z,15.90
2023-06-12T01:40:03.135Z,15.90
2023-06-12T01:41:03.245Z,15.90
2023-06-12T01:42:02.810Z,15.90
2023-06-12T01:43:03.033Z,15.80
2023-06-12T01:44:03.107Z,15.80
2023-06-12T01:45:02.661Z,15.80
2023-06-12T01:46:03.327Z,15.80
2023-06-12T01:47:03.195Z,15.80
2023-06-12T01:48:03.464Z,15.80
2023-06-12T01:49:03.158Z,15.80
2023-06-12T01:50:02.831Z,15.80
2023-06-12T01:51:03.377Z,15.80
2023-06-12T01:52:03.198Z,15.80
2023-06-12T01:53:02.743Z,15.80
2023-06-12T01:54:03.490Z,15.80
2023-06-12T01:55:03.151Z,15.80
2023-06-12T01:56:02.925Z,15.80
2023-06-12T01:57:02.859Z,15.80
2023-06-12T01:58:03.476Z,15.80
2023-06-12T01:59:03.484Z,15.80
2023-06-12T02:00:03.199Z,15.80
2023-06-12T02:01:02.810Z,15.80
2023-06-12T02:02:03.475Z,15.80
2023-06-12T02:03:03.245Z,15.80
2023-06-12T02:04:02.957Z,15.80
2023-06-12T02:05:03.654Z,15.80
2023-06-12T02:06:02.630Z,15.80
2023-06-12T02:07:03.300Z,15.80
2023-06-12T02:08:03.300Z,15.80
2023-06-12T02:09:02.657Z,15.80
2023-06-12T02:10:03.285Z,15.80
2023-06-12T02:11:02.923Z,15.80
2023-06-12T02:12:03.422Z,15.80
2023-06-12T02:13:03.386Z,15.80
2023-06-12T02:14:02.901Z,15.80
2023-06-12T02:15:03.492Z,15.80
2023-06-12T02:16:03.178Z,15.80
2023-06-12T02:17:02.919Z,15.70
2023-06-12T02:18:03.690Z,15.70
2023-06-12T02:19:03.271Z,15.70
2023-06-12T02:20:03.337Z,15.70
2023-06-12T02:21:02.926Z,15.70
2023-06-12T02:22:02.935Z,15.80
2023-06-12T02:23:02.830Z,15.80
2023-06-12T02:24:03.395Z,15.70
2023-06-12T02:25:02.938Z,15.70
2023-06-12T02:26:03.547Z,15.70
2023-06-12T02:27:03.302Z,15.70
2023-06-12T02:28:03.494Z,15.70
2023-06-12T02:29:02.625Z,15.70
2023-06-12T02:30:02.633Z,15.70
2023-06-12T02:31:03.255Z,15.60
2023-06-12T02:32:03.276Z,15.60
2023-06-12T02:33:02.701Z,15.60
2023-06-12T02:34:03.404Z,15.60
2023-06-12T02:35:02.681Z,15.60
2023-06-12T02:36:02.605Z,15.50
2023-06-12T02:37:03.354Z,15.50
2023-06-12T02:38:03.037Z,15.50
2023-06-12T02:39:02.657Z,15.50
2023-06-12T02:40:03.350Z,15.40
2023-06-12T02:41:02.844Z,15.40
2023-06-12T02:42:03.504Z,15.40
2023-06-12T02:43:03.560Z,15.40
2023-06-12T02:44:03.117Z,15.30
2023-06-12T02:45:02.902Z,15.30
2023-06-12T02:46:03.569Z,15.30
2023-06-12T02:47:03.280Z,15.20
2023-06-12T02:48:02.853Z,15.20
2023-06-12T02:49:03.015Z,15.20
2023-06-12T02:50:02.827Z,15.20
2023-06-12T02:51:02.664Z,15.20
2023-06-12T02:52:03.346Z,15.20
2023-06-12T02:53:02.666Z,15.10
2023-06-12T02:54:03.394Z,15.10
2023-06-12T02:55:03.221Z,15.10
2023-06-12T02:56:02.733Z,15.10
2023-06-12T02:57:02.789Z,15.10
2023-06-12T02:58:03.344Z,15.10
2023-06-12T02:59:03.000Z,15.10
2023-06-12T03:00:03.127Z,15.10
2023-06-12T03:01:03.241Z,15.10
2023-06-12T03:02:02.971Z,15.10
2023-06-12T03:03:03.634Z,15.00
2023-06-12T03:04:03.074Z,15.10
2023-06-12T03:05:03.414Z,15.00
2023-06-12T03:06:02.908Z,15.00
2023-06-12T03:07:03.146Z,15.00
2023-06-12T03:08:03.242Z,15.00
2023-06-12T03:09:03.037Z,15.00
2023-06-12T03:10:02.781Z,15.00
2023-06-12T03:11:03.339Z,15.00
2023-06-12T03:12:02.983Z,14.90
2023-06-12T03:13:02.806Z,14.90
2023-06-12T03:14:03.505Z,14.90
2023-06-12T03:15:03.314Z,14.90
2023-06-12T03:16:03.598Z,14.90
2023-06-12T03:17:02.925Z,14.90
2023-06-12T03:18:02.993Z,14.90
2023-06-12T03:19:03.188Z,14.80
2023-06-12T03:20:02.770Z,14.80
2023-06-12T03:21:03.345Z,14.80
2023-06-12T03:22:03.357Z,14.80
2023-06-12T03:23:03.046Z,14.80
2023-06-12T03:24:02.946Z,14.80
2023-06-12T03:25:03.595Z,14.80
2023-06-12T03:26:03.356Z,14.80
2023-06-12T03:27:03.024Z,14.80
2023-06-12T03:28:03.203Z,14.80
2023-06-12T03:29:03.277Z,14.80
2023-06-12T03:30:03.223Z,14.80
2023-06-12T03:31:03.019Z,14.80
2023-06-12T03:32:03.236Z,14.80
2023-06-12T03:33:03.335Z,14.80
2023-06-12T03:34:03.513Z,14.80
2023-06-12T03:35:02.686Z,14.80
2023-06-12T03:36:02.607Z,14.80
2023-06-12T03:37:02.842Z,14.80
2023-06-12T03:38:03.486Z,14.80
2023-06-12T03:39:02.701Z,14.80
2023-06-12T03:40:02.725Z,14.80
2023-06-12T03:41:03.325Z,14.90
2023-06-12T03:42:02.846Z,14.90
2023-06-12T03:43:03.499Z,15.00
2023-06-12T03:44:02.733Z,15.00
2023-06-12T03:45:03.311Z,15.00
2023-06-12T03:46:03.032Z,15.10
2023-06-12T03:47:03.153Z,15.10
2023-06-12T03:48:03.604Z,15.20
2023-06-12T03:49:03.399Z,15.20
2023-06-12T03:50:02.976Z,15.30
2023-06-12T03:51:03.149Z,15.30
2023-06-12T03:52:02.763Z,15.40
2023-06-12T03:53:02.891Z,15.40
2023-06-12T03:54:03.369Z,15.50
2023-06-12T03:55:03.004Z,15.50
2023-06-12T03:56:03.615Z,15.50
2023-06-12T03:57:03.598Z,15.50
2023-06-12T03:58:03.227Z,15.50
2023-06-12T03:59:02.769Z,15.50
2023-06-12T04:00:03.648Z,15.50
2023-06-12T04:01:03.186Z,15.40
2023-06-12T04:02:02.943Z,15.50
2023-06-12T04:03:03.544Z,15.50
2023-06-12T04:04:03.381Z,15.50
2023-06-12T04:05:03.473Z,15.60
2023-06-12T04:06:03.598Z,15.70
2023-06-12T04:07:03.835Z,15.80
2023-06-12T04:08:02.963Z,15.90
2023-06-12T04:09:02.969Z,16.10
2023-06-12T04:10:04.302Z,16.20
2023-06-12T04:11:02.800Z,16.40
2023-06-12T04:12:03.517Z,16.50
2023-06-12T04:13:03.230Z,16.70
2023-06-12T04:14:03.235Z,16.80
2023-06-12T04:15:03.214Z,17.00
2023-06-12T04:16:02.841Z,17.10
2023-06-12T04:17:03.029Z,17.30
2023-06-12T04:18:02.983Z,17.50
2023-06-12T04:19:03.362Z,17.60
2023-06-12T04:20:03.017Z,17.80
2023-06-12T04:21:02.684Z,17.90
2023-06-12T04:22:02.823Z,18.00
2023-06-12T04:23:03.450Z,18.20
2023-06-12T04:24:03.311Z,18.20
2023-06-12T04:25:03.723Z,18.30
2023-06-12T04:26:03.361Z,18.40
2023-06-12T04:27:03.408Z,18.40
2023-06-12T04:28:03.100Z,18.40
2023-06-12T04:29:02.776Z,18.40
2023-06-12T04:30:02.960Z,18.40
2023-06-12T04:31:08.229Z,18.50
2023-06-12T04:32:03.040Z,18.50
2023-06-12T04:33:04.044Z,18.60
2023-06-12T04:34:03.583Z,18.60
2023-06-12T04:35:03.658Z,18.70
2023-06-12T04:36:03.122Z,18.80
2023-06-12T04:37:03.220Z,18.80
2023-06-12T04:38:02.799Z,18.90
2023-06-12T04:39:03.411Z,19.00
2023-06-12T04:40:03.018Z,19.10
2023-06-12T04:41:03.043Z,19.30
2023-06-12T04:42:03.379Z,19.40
2023-06-12T04:43:03.006Z,19.50
2023-06-12T04:44:03.043Z,19.60
2023-06-12T04:45:02.791Z,19.80
2023-06-12T04:46:03.387Z,19.90
2023-06-12T04:47:02.977Z,20.00
2023-06-12T04:48:02.875Z,20.10
2023-06-12T04:49:02.989Z,20.20
2023-06-12T04:50:03.330Z,20.30
2023-06-12T04:51:02.894Z,20.30
2023-06-12T04:52:02.735Z,20.40
2023-06-12T04:53:03.249Z,20.50
2023-06-12T04:54:05.796Z,20.50
2023-06-12T04:55:03.670Z,20.60
2023-06-12T04:56:03.275Z,20.70
2023-06-12T04:57:02.931Z,20.70
2023-06-12T04:58:03.588Z,20.80
2023-06-12T04:59:03.678Z,20.90
2023-06-12T05:00:03.220Z,20.90
2023-06-12T05:01:03.345Z,21.00
2023-06-12T05:02:02.984Z,21.00
2023-06-12T05:03:03.777Z,21.10
2023-06-12T05:04:03.439Z,21.10
2023-06-12T05:05:03.160Z,21.20
2023-06-12T05:06:03.434Z,21.20
2023-06-12T05:07:02.962Z,21.20
2023-06-12T05:08:02.705Z,21.30
2023-06-12T05:09:03.357Z,21.30
2023-06-12T05:10:03.242Z,21.40
2023-06-12T05:11:02.746Z,21.40
2023-06-12T05:12:03.444Z,21.40
2023-06-12T05:13:03.541Z,21.50
2023-06-12T05:14:02.848Z,21.50
2023-06-12T05:15:03.320Z,21.50
2023-06-12T05:16:03.501Z,21.60
2023-06-12T05:17:03.214Z,21.60
2023-06-12T05:18:03.241Z,21.70
2023-06-12T05:19:02.625Z,21.70
2023-06-12T05:20:02.779Z,21.70
2023-06-12T05:21:02.810Z,21.70
2023-06-12T05:22:03.563Z,21.70
2023-06-12T05:23:03.125Z,21.80
2023-06-12T05:24:02.815Z,21.80
2023-06-12T05:25:03.627Z,21.90
2023-06-12T05:26:03.345Z,21.90
2023-06-12T05:27:03.416Z,21.90
2023-06-12T05:28:03.100Z,22.00
2023-06-12T05:29:03.171Z,22.00
2023-06-12T05:30:03.240Z,22.00
2023-06-12T05:31:03.019Z,22.10
2023-06-12T05:32:03.052Z,22.10
2023-06-12T05:33:02.809Z,22.10
2023-06-12T05:34:03.616Z,22.10
2023-06-12T05:35:03.181Z,22.20
2023-06-12T05:36:02.848Z,22.20
2023-06-12T05:37:02.748Z,22.20
2023-06-12T05:38:02.797Z,22.30
2023-06-12T05:39:03.114Z,22.30
2023-06-12T05:40:03.006Z,22.30
2023-06-12T05:41:03.194Z,22.40
2023-06-12T05:42:02.885Z,22.40
2023-06-12T05:43:03.586Z,22.50
2023-06-12T05:44:08.611Z,22.60
2023-06-12T05:45:03.397Z,22.70
2023-06-12T05:46:03.051Z,22.70
2023-06-12T05:47:03.697Z,22.80
2023-06-12T05:48:03.653Z,22.90
2023-06-12T05:49:03.228Z,22.90
2023-06-12T05:50:03.419Z,23.00
2023-06-12T05:51:03.566Z,23.00
2023-06-12T05:52:03.098Z,23.10
2023-06-12T05:53:03.071Z,23.20
2023-06-12T05:54:03.722Z,23.20
2023-06-12T05:55:09.230Z,23.30
2023-06-12T05:56:04.261Z,23.30
2023-06-12T05:57:03.543Z,23.40
2023-06-12T05:58:05.636Z,23.40
2023-06-12T05:59:03.296Z,23.40
2023-06-12T06:00:03.250Z,23.50
2023-06-12T06:01:03.320Z,23.50
2023-06-12T06:02:03.051Z,23.50
2023-06-12T06:03:03.702Z,23.60
2023-06-12T06:04:02.912Z,23.60
2023-06-12T06:05:03.117Z,23.70
2023-06-12T06:06:03.189Z,23.70
2023-06-12T06:07:10.064Z,23.80
2023-06-12T06:08:02.876Z,23.80
2023-06-12T06:09:02.936Z,23.90
2023-06-12T06:10:03.168Z,24.00
2023-06-12T06:11:02.853Z,24.10
2023-06-12T06:12:03.560Z,24.10
2023-06-12T06:13:03.242Z,24.20
2023-06-12T06:14:02.969Z,24.30
2023-06-12T06:15:03.490Z,24.40
2023-06-12T06:16:03.352Z,24.40
2023-06-12T06:17:03.174Z,24.50
2023-06-12T06:18:02.794Z,24.60
2023-06-12T06:19:03.019Z,24.60
2023-06-12T06:20:02.752Z,24.60
2023-06-12T06:21:03.343Z,24.60
2023-06-12T06:22:03.564Z,24.60
2023-06-12T06:23:02.643Z,24.70
2023-06-12T06:24:03.242Z,24.70
2023-06-12T06:25:03.035Z,24.70
2023-06-12T06:26:02.717Z,24.70
2023-06-12T06:27:03.557Z,24.80
2023-06-12T06:28:03.520Z,24.80
2023-06-12T06:29:13.303Z,24.80
2023-06-12T06:30:03.275Z,24.80
2023-06-12T06:31:03.366Z,24.80
2023-06-12T06:32:03.051Z,24.80
2023-06-12T06:33:02.967Z,24.80
2023-06-12T06:34:03.288Z,24.90
2023-06-12T06:35:03.168Z,24.90
2023-06-12T06:36:02.762Z,25.00
2023-06-12T06:37:03.496Z,25.00
2023-06-12T06:38:03.208Z,25.10
2023-06-12T06:39:02.770Z,25.10
2023-06-12T06:40:03.565Z,25.20
2023-06-12T06:41:03.131Z,25.20
2023-06-12T06:42:03.289Z,25.20
2023-06-12T06:43:02.855Z,25.20
2023-06-12T06:44:03.046Z,25.20
2023-06-12T06:45:02.866Z,25.20
2023-06-12T06:46:03.596Z,25.20
2023-06-12T06:47:03.146Z,25.20
2023-06-12T06:48:02.745Z,25.20
2023-06-12T06:49:03.033Z,25.20
2023-06-12T06:50:02.753Z,25.20
2023-06-12T06:51:03.270Z,25.30
2023-06-12T06:52:03.085Z,25.30
2023-06-12T06:53:03.193Z,25.40
2023-06-12T06:54:03.273Z,25.40
2023-06-12T06:55:03.319Z,25.40
2023-06-12T06:56:02.921Z,25.40
2023-06-12T06:57:02.711Z,25.40
2023-06-12T06:58:03.442Z,25.40
2023-06-12T06:59:03.526Z,25.40
2023-06-12T07:00:03.064Z,25.40
2023-06-12T07:01:02.857Z,25.40
2023-06-12T07:02:03.663Z,25.40
2023-06-12T07:03:03.319Z,25.40
2023-06-12T07:04:03.647Z,25.30
2023-06-12T07:05:02.655Z,25.30
2023-06-12T07:06:02.972Z,25.20
2023-06-12T07:07:02.638Z,25.20
2023-06-12T07:08:03.445Z,25.20
2023-06-12T07:09:03.604Z,25.10
2023-06-12T07:10:03.251Z,25.10
2023-06-12T07:11:02.911Z,25.10
2023-06-12T07:12:03.544Z,25.10
2023-06-12T07:13:03.156Z,25.10
2023-06-12T07:14:02.782Z,25.10
2023-06-12T07:15:03.508Z,25.10
2023-06-12T07:16:03.002Z,25.10
2023-06-12T07:17:02.837Z,25.10
2023-06-12T07:18:03.592Z,25.10
2023-06-12T07:19:03.483Z,25.20
2023-06-12T07:20:03.021Z,25.20
2023-06-12T07:21:02.871Z,25.20
2023-06-12T07:22:02.700Z,25.20
2023-06-12T07:23:03.452Z,25.30
2023-06-12T07:24:03.107Z,25.30
2023-06-12T07:25:02.947Z,25.30
2023-06-12T07:26:11.513Z,25.30
2023-06-12T07:27:03.357Z,25.30
2023-06-12T07:28:04.130Z,25.30
2023-06-12T07:29:03.162Z,25.40
2023-06-12T07:30:02.750Z,25.40
2023-06-12T07:31:03.630Z,25.50
2023-06-12T07:32:02.835Z,25.50
2023-06-12T07:33:03.016Z,25.50
2023-06-12T07:34:04.798Z,25.50
2023-06-12T07:35:03.178Z,25.50
2023-06-12T07:36:02.673Z,25.50
2023-06-12T07:37:03.517Z,25.60
2023-06-12T07:38:03.577Z,25.60
2023-06-12T07:39:02.681Z,25.70
2023-06-12T07:40:03.629Z,25.70
2023-06-12T07:41:03.389Z,25.80
2023-06-12T07:42:02.939Z,25.80
2023-06-12T07:43:03.376Z,25.80
2023-06-12T07:44:03.029Z,25.80
2023-06-12T07:45:03.639Z,25.80
2023-06-12T07:46:03.426Z,25.80
2023-06-12T07:47:08.007Z,25.80
2023-06-12T07:48:03.055Z,25.80
2023-06-12T07:49:03.259Z,25.80
2023-06-12T07:50:03.099Z,25.80
2023-06-12T07:51:02.650Z,25.80
2023-06-12T07:52:02.785Z,25.70
2023-06-12T07:53:03.721Z,25.80
2023-06-12T07:54:03.095Z,25.70
2023-06-12T07:55:02.766Z,25.70
2023-06-12T07:56:03.400Z,25.70
2023-06-12T07:57:03.557Z,25.60
2023-06-12T07:58:03.195Z,25.60
2023-06-12T07:59:02.865Z,25.60
2023-06-12T08:00:03.660Z,25.60
2023-06-12T08:01:02.716Z,25.60
2023-06-12T08:02:02.784Z,25.60
2023-06-12T08:03:08.383Z,25.60
2023-06-12T08:04:03.687Z,25.60
2023-06-12T08:05:02.700Z,25.60
2023-06-12T08:06:05.125Z,25.60
2023-06-12T08:07:03.668Z,25.60
2023-06-12T08:08:03.168Z,25.50
2023-06-12T08:09:02.822Z,25.50
2023-06-12T08:10:03.623Z,25.50
2023-06-12T08:11:03.162Z,25.50
2023-06-12T08:12:02.732Z,25.50
2023-06-12T08:13:03.618Z,25.50
2023-06-12T08:14:03.563Z,25.50
2023-06-12T08:15:03.226Z,25.40
2023-06-12T08:16:03.196Z,25.40
2023-06-12T08:17:03.291Z,25.40
2023-06-12T08:18:02.976Z,25.40
2023-06-12T08:19:03.068Z,25.40
2023-06-12T08:20:02.642Z,25.40
2023-06-12T08:21:03.334Z,25.40
2023-06-12T08:22:03.591Z,25.40
2023-06-12T08:23:03.172Z,25.40
2023-06-12T08:24:03.389Z,25.50
2023-06-12T08:25:02.963Z,25.40
2023-06-12T08:26:03.268Z,25.40
2023-06-12T08:27:02.880Z,25.40
2023-06-12T08:28:02.685Z,25.40
2023-06-12T08:29:03.351Z,25.40
2023-06-12T08:30:03.531Z,25.40
2023-06-12T08:31:03.321Z,25.40
2023-06-12T08:32:03.495Z,25.40
2023-06-12T08:33:03.937Z,25.40
2023-06-12T08:34:02.790Z,25.40
2023-06-12T08:35:03.029Z,25.40
2023-06-12T08:36:03.627Z,25.40
2023-06-12T08:37:02.617Z,25.40
2023-06-12T08:38:02.929Z,25.40
2023-06-12T08:39:03.463Z,25.50
2023-06-12T08:40:03.526Z,25.50
2023-06-12T08:41:03.391Z,25.60
2023-06-12T08:42:03.373Z,25.60
2023-06-12T08:43:03.364Z,25.60
2023-06-12T08:44:03.406Z,25.70
2023-06-12T08:45:15.842Z,25.70
2023-06-12T08:46:03.429Z,25.70
2023-06-12T08:47:03.009Z,25.70
2023-06-12T08:48:02.782Z,25.70
2023-06-12T08:49:03.008Z,25.70
2023-06-12T08:50:02.624Z,25.70
2023-06-12T08:51:02.765Z,25.70
2023-06-12T08:52:02.990Z,25.70
2023-06-12T08:53:03.533Z,25.70
2023-06-12T08:54:03.152Z,25.70
2023-06-12T08:55:02.879Z,25.70
2023-06-12T08:56:03.568Z,25.70
2023-06-12T08:57:03.396Z,25.60
2023-06-12T08:58:03.314Z,25.60
2023-06-12T08:59:03.687Z,25.60
2023-06-12T09:00:03.241Z,25.60
2023-06-12T09:01:03.460Z,25.60
2023-06-12T09:03:03.566Z,25.50
2023-06-12T09:04:03.216Z,25.50
2023-06-12T09:05:03.185Z,25.40
2023-06-12T09:06:03.326Z,25.40
2023-06-12T09:07:03.098Z,25.40
2023-06-12T09:08:02.662Z,25.40
2023-06-12T09:09:03.457Z,25.30
2023-06-12T09:10:13.258Z,25.30
2023-06-12T09:11:03.281Z,25.30
2023-06-12T09:12:03.426Z,25.20
2023-06-12T09:13:02.984Z,25.20
2023-06-12T09:14:02.683Z,25.10
2023-06-12T09:15:03.277Z,25.10
2023-06-12T09:16:03.018Z,25.10
2023-06-12T09:17:02.767Z,25.10
2023-06-12T09:18:03.076Z,25.10
2023-06-12T09:19:02.850Z,25.10
2023-06-12T09:20:02.769Z,25.10
2023-06-12T09:21:03.506Z,25.10
2023-06-12T09:22:03.318Z,25.10
2023-06-12T09:23:02.867Z,25.20
2023-06-12T09:24:03.550Z,25.30
2023-06-12T09:25:03.297Z,25.30
2023-06-12T09:26:15.123Z,25.40
2023-06-12T09:27:03.223Z,25.50
2023-06-12T09:28:02.804Z,25.50
2023-06-12T09:29:03.213Z,25.50
2023-06-12T09:30:03.003Z,25.50
2023-06-12T09:31:02.740Z,25.50
2023-06-12T09:32:03.706Z,25.50
2023-06-12T09:33:03.564Z,25.50
2023-06-12T09:34:03.608Z,25.40
2023-06-12T09:35:03.347Z,25.40
2023-06-12T09:36:02.979Z,25.40
2023-06-12T09:37:02.620Z,25.40
2023-06-12T09:38:02.821Z,25.40
2023-06-12T09:39:03.512Z,25.40
2023-06-12T09:40:03.224Z,25.40
2023-06-12T09:41:02.804Z,25.40
2023-06-12T09:42:03.632Z,25.40
2023-06-12T09:43:02.969Z,25.40
2023-06-12T09:44:03.323Z,25.30
2023-06-12T09:45:02.885Z,25.30
2023-06-12T09:46:03.713Z,25.30
2023-06-12T09:47:03.537Z,25.30
2023-06-12T09:48:03.428Z,25.20
2023-06-12T09:49:03.320Z,25.20
2023-06-12T09:50:02.878Z,25.20
2023-06-12T09:51:03.421Z,25.20
2023-06-12T09:52:03.550Z,25.20
2023-06-12T09:53:03.131Z,25.20
2023-06-12T09:54:02.922Z,25.20
2023-06-12T09:55:03.599Z,25.20
2023-06-12T09:56:03.219Z,25.10
2023-06-12T09:57:03.419Z,25.10
2023-06-12T09:58:03.018Z,25.10
2023-06-12T09:59:02.760Z,25.10
2023-06-12T10:00:02.818Z,25.10
2023-06-12T10:01:03.477Z,25.10
2023-06-12T10:02:02.889Z,25.10
2023-06-12T10:03:03.226Z,25.20
2023-06-12T10:04:02.953Z,25.20
2023-06-12T10:05:02.614Z,25.20
2023-06-12T10:06:03.429Z,25.20
2023-06-12T10:07:03.055Z,25.30
2023-06-12T10:08:02.895Z,25.30
2023-06-12T10:09:03.017Z,25.30
2023-06-12T10:10:02.997Z,25.20
2023-06-12T10:11:03.556Z,25.20
2023-06-12T10:12:02.738Z,25.20
2023-06-12T10:13:03.178Z,25.20
2023-06-12T10:14:03.477Z,25.20
2023-06-12T10:15:03.544Z,25.20
2023-06-12T10:16:03.077Z,25.20
2023-06-12T10:17:03.341Z,25.20
2023-06-12T10:18:03.251Z,25.30
2023-06-12T10:19:03.050Z,25.30
2023-06-12T10:20:02.910Z,25.40
2023-06-12T10:21:02.999Z,25.40
2023-06-12T10:22:02.929Z,25.40
2023-06-12T10:23:02.790Z,25.50
2023-06-12T10:24:03.618Z,25.50
2023-06-12T10:25:03.202Z,25.50
2023-06-12T10:26:02.772Z,25.50
2023-06-12T10:27:03.484Z,25.50
2023-06-12T10:28:03.176Z,25.40
2023-06-12T10:29:03.149Z,25.40
2023-06-12T10:30:02.722Z,25.30
2023-06-12T10:31:03.655Z,25.30
2023-06-12T10:32:03.099Z,25.30
2023-06-12T10:33:03.457Z,25.30
2023-06-12T10:34:03.726Z,25.30
2023-06-12T10:35:03.268Z,25.30
2023-06-12T10:36:03.279Z,25.30
2023-06-12T10:37:02.942Z,25.30
2023-06-12T10:38:03.030Z,25.30
2023-06-12T10:39:03.047Z,25.30
2023-06-12T10:40:02.919Z,25.30
2023-06-12T10:41:02.843Z,25.30
2023-06-12T10:42:03.405Z,25.40
2023-06-12T10:43:03.547Z,25.40
2023-06-12T10:44:02.761Z,25.40
2023-06-12T10:45:03.419Z,25.30
2023-06-12T10:46:03.632Z,25.30
2023-06-12T10:47:03.425Z,25.30
2023-06-12T10:48:03.065Z,25.30
2023-06-12T10:49:03.502Z,25.30
2023-06-12T10:50:02.705Z,25.30
2023-06-12T10:51:03.374Z,25.30
2023-06-12T10:52:03.522Z,25.30
2023-06-12T10:53:03.348Z,25.30
2023-06-12T10:54:02.921Z,25.40
2023-06-12T10:55:03.004Z,25.40
2023-06-12T10:56:02.975Z,25.40
2023-06-12T10:57:02.801Z,25.40
2023-06-12T10:58:02.856Z,25.50
2023-06-12T10:59:02.702Z,25.50
2023-06-12T11:00:02.738Z,25.50
2023-06-12T11:01:02.802Z,25.40
2023-06-12T11:02:03.158Z,25.50
2023-06-12T11:03:03.014Z,25.50
2023-06-12T11:04:03.401Z,25.50
2023-06-12T11:05:03.634Z,25.50
2023-06-12T11:06:03.035Z,25.50
2023-06-12T11:07:02.684Z,25.60
2023-06-12T11:08:03.418Z,25.60
2023-06-12T11:09:03.446Z,25.60
2023-06-12T11:10:03.425Z,25.60
2023-06-12T11:11:03.069Z,25.60
2023-06-12T11:12:02.672Z,25.50
2023-06-12T11:13:03.305Z,25.50
2023-06-12T11:14:03.117Z,25.50
2023-06-12T11:15:02.915Z,25.50
2023-06-12T11:16:03.595Z,25.40
2023-06-12T11:17:02.774Z,25.40
2023-06-12T11:18:03.426Z,25.40
2023-06-12T11:19:02.999Z,25.40
2023-06-12T11:20:03.307Z,25.40
2023-06-12T11:21:03.006Z,25.50
2023-06-12T11:22:03.215Z,25.50
2023-06-12T11:23:03.015Z,25.50
2023-06-12T11:24:03.073Z,25.50
2023-06-12T11:25:03.374Z,25.50
2023-06-12T11:26:03.520Z,25.50
2023-06-12T11:27:03.554Z,25.50
2023-06-12T11:28:03.138Z,25.40
2023-06-12T11:29:03.200Z,25.40
2023-06-12T11:30:10.139Z,25.40
2023-06-12T11:31:10.771Z,25.50
2023-06-12T11:32:02.990Z,25.50
2023-06-12T11:33:02.700Z,25.50
2023-06-12T11:34:03.723Z,25.50
2023-06-12T11:35:03.084Z,25.40
2023-06-12T11:36:03.358Z,25.40
2023-06-12T11:37:03.672Z,25.40
2023-06-12T11:40:03.430Z,25.30
2023-06-12T11:41:03.133Z,25.30
2023-06-12T11:42:02.812Z,25.30
2023-06-12T11:43:03.663Z,25.40
2023-06-12T11:44:03.014Z,25.40
2023-06-12T11:45:02.647Z,25.40
2023-06-12T11:46:03.487Z,25.40
2023-06-12T11:50:02.772Z,25.40
2023-06-12T11:51:03.535Z,25.40
2023-06-12T11:52:03.174Z,25.40
2023-06-12T11:53:02.891Z,25.40
2023-06-12T11:54:02.623Z,25.40
2023-06-12T11:57:04.494Z,25.50
2023-06-12T11:58:02.813Z,25.50
2023-06-12T11:59:03.544Z,25.60
2023-06-12T12:00:03.256Z,25.60
2023-06-12T12:01:02.925Z,25.70
2023-06-12T12:02:02.740Z,25.60
2023-06-12T12:03:03.151Z,25.70
2023-06-12T12:04:02.804Z,25.70
2023-06-12T12:05:03.573Z,25.70
2023-06-12T12:06:02.833Z,25.70
2023-06-12T12:07:03.358Z,25.70
2023-06-12T12:08:03.011Z,25.80
2023-06-12T12:09:02.876Z,25.80
2023-06-12T12:10:03.415Z,25.70
2023-06-12T12:11:03.575Z,25.70
2023-06-12T12:12:03.321Z,25.70
2023-06-12T12:13:03.463Z,25.70
2023-06-12T12:14:03.549Z,25.70
2023-06-12T12:15:03.596Z,25.70
2023-06-12T12:16:02.900Z,25.70
2023-06-12T12:17:03.690Z,25.70
2023-06-12T12:18:02.956Z,25.60
2023-06-12T12:19:02.702Z,25.60
2023-06-12T12:20:03.599Z,25.60
2023-06-12T12:21:03.200Z,25.60
2023-06-12T12:22:02.956Z,25.60
2023-06-12T12:23:03.380Z,25.60
2023-06-12T12:24:03.065Z,25.60
2023-06-12T12:25:03.481Z,25.60
2023-06-12T12:26:03.044Z,25.60
2023-06-12T12:27:02.675Z,25.60
2023-06-12T12:28:03.399Z,25.60
2023-06-12T12:29:03.615Z,25.60
2023-06-12T12:30:03.299Z,25.60
2023-06-12T12:31:02.878Z,25.60
2023-06-12T12:32:02.773Z,25.60
2023-06-12T12:33:02.866Z,25.70
2023-06-12T12:34:03.422Z,25.70
2023-06-12T12:35:03.396Z,25.70
2023-06-12T12:36:03.589Z,25.70
2023-06-12T12:37:02.736Z,25.70
2023-06-12T12:38:03.324Z,25.70
2023-06-12T12:39:02.882Z,25.70
2023-06-12T12:40:03.702Z,25.70
2023-06-12T12:41:03.637Z,25.70
2023-06-12T12:42:03.264Z,25.70
2023-06-12T12:43:02.952Z,25.70
2023-06-12T12:44:03.510Z,25.70
2023-06-12T12:45:03.649Z,25.70
2023-06-12T12:46:03.287Z,25.70
2023-06-12T12:47:02.827Z,25.70
2023-06-12T12:48:07.850Z,25.70
2023-06-12T12:49:03.138Z,25.70
2023-06-12T12:50:06.099Z,25.80
2023-06-12T12:51:09.550Z,25.70
2023-06-12T12:52:03.320Z,25.80
2023-06-12T12:53:03.073Z,25.80
2023-06-12T12:54:02.874Z,25.70
2023-06-12T12:55:03.561Z,25.80
2023-06-12T12:56:03.753Z,25.80
2023-06-12T12:57:03.352Z,25.80
2023-06-12T12:59:03.477Z,25.80
2023-06-12T13:00:03.464Z,25.80
2023-06-12T13:01:03.237Z,25.80